createdAt,value
2023-07-08T00:00:28.335Z,51
2023-07-08T00:00:55.616Z,51
2023-07-08T00:01:27.178Z,50
2023-07-08T00:01:57.406Z,52
2023-07-08T00:02:29.151Z,50
2023-07-08T00:02:59.457Z,50
2023-07-08T00:03:31.169Z,50
2023-07-08T00:04:01.450Z,50
2023-07-08T00:04:33.206Z,50
2023-07-08T00:05:05.205Z,50
2023-07-08T00:05:35.069Z,51
2023-07-08T00:06:05.406Z,50
2023-07-08T00:06:37.923Z,50
2023-07-08T00:07:07.731Z,51
2023-07-08T00:07:39.100Z,50
2023-07-08T00:08:09.461Z,49
2023-07-08T00:08:41.096Z,49
2023-07-08T00:09:11.438Z,51
2023-07-08T00:09:43.358Z,50
2023-07-08T00:10:14.863Z,50
2023-07-08T00:10:44.652Z,50
2023-07-08T00:11:16.118Z,51
2023-07-08T00:11:46.458Z,50
2023-07-08T00:12:18.521Z,50
2023-07-08T00:12:48.364Z,50
2023-07-08T00:13:20.372Z,51
2023-07-08T00:13:50.557Z,50
2023-07-08T00:14:22.146Z,50
2023-07-08T00:14:52.413Z,50
2023-07-08T00:15:26.600Z,51
2023-07-08T00:15:54.505Z,51
2023-07-08T00:16:26.126Z,51
2023-07-08T00:16:56.956Z,51
2023-07-08T00:17:28.217Z,51
2023-07-08T00:17:58.429Z,51
2023-07-08T00:18:30.098Z,51
2023-07-08T00:19:00.410Z,50
2023-07-08T00:19:32.896Z,51
2023-07-08T00:20:03.342Z,52
2023-07-08T00:20:44.798Z,51
2023-07-08T00:21:05.647Z,51
2023-07-08T00:21:36.103Z,51
2023-07-08T00:22:06.797Z,50
2023-07-08T00:22:38.229Z,51
2023-07-08T00:23:08.604Z,52
2023-07-08T00:23:40.096Z,52
2023-07-08T00:24:10.379Z,51
2023-07-08T00:24:42.056Z,50
2023-07-08T00:25:13.323Z,51
2023-07-08T00:25:45.094Z,51
2023-07-08T00:26:14.458Z,51
2023-07-08T00:26:46.115Z,51
2023-07-08T00:27:16.598Z,51
2023-07-08T00:27:48.173Z,51
2023-07-08T00:28:18.432Z,51
2023-07-08T00:28:50.154Z,51
2023-07-08T00:29:20.360Z,51
2023-07-08T00:29:52.099Z,51
2023-07-08T00:30:24.875Z,51
2023-07-08T00:30:55.222Z,51
2023-07-08T00:31:25.031Z,51
2023-07-08T00:31:56.096Z,51
2023-07-08T00:32:26.400Z,51
2023-07-08T00:32:59.167Z,51
2023-07-08T00:33:28.438Z,52
2023-07-08T00:34:00.060Z,52
2023-07-08T00:34:30.425Z,51
2023-07-08T00:35:03.177Z,51
2023-07-08T00:35:32.394Z,51
2023-07-08T00:36:05.089Z,52
2023-07-08T00:36:34.578Z,51
2023-07-08T00:37:06.091Z,51
2023-07-08T00:37:36.555Z,51
2023-07-08T00:38:08.227Z,51
2023-07-08T00:38:38.567Z,51
2023-07-08T00:39:10.215Z,51
2023-07-08T00:39:40.540Z,52
2023-07-08T00:40:12.513Z,52
2023-07-08T00:40:43.621Z,50
2023-07-08T00:41:15.075Z,50
2023-07-08T00:41:44.729Z,50
2023-07-08T00:42:16.146Z,51
2023-07-08T00:42:46.439Z,50
2023-07-08T00:43:18.134Z,50
2023-07-08T00:43:49.063Z,50
2023-07-08T00:44:20.049Z,49
2023-07-08T00:44:50.348Z,49
2023-07-08T00:45:22.916Z,50
2023-07-08T00:46:01.903Z,49
2023-07-08T00:46:25.142Z,50
2023-07-08T00:46:54.432Z,50
2023-07-08T00:47:26.131Z,50
2023-07-08T00:47:56.453Z,52
2023-07-08T00:48:28.226Z,50
2023-07-08T00:48:58.720Z,51
2023-07-08T00:49:30.088Z,50
2023-07-08T00:50:01.292Z,50
2023-07-08T00:50:32.124Z,51
2023-07-08T00:51:02.592Z,51
2023-07-08T00:51:35.175Z,52
2023-07-08T00:52:05.671Z,51
2023-07-08T00:52:35.522Z,51
2023-07-08T00:53:08.620Z,51
2023-07-08T00:53:37.510Z,50
2023-07-08T00:54:09.409Z,50
2023-07-08T00:54:39.390Z,52
2023-07-08T00:55:11.587Z,52
2023-07-08T00:55:41.497Z,52
2023-07-08T00:56:13.113Z,51
2023-07-08T00:56:44.397Z,51
2023-07-08T00:57:15.089Z,50
2023-07-08T00:57:45.369Z,50
2023-07-08T00:58:17.108Z,50
2023-07-08T00:58:47.398Z,50
2023-07-08T00:59:19.097Z,49
2023-07-08T00:59:49.537Z,49
2023-07-08T01:00:23.173Z,49
2023-07-08T01:00:58.669Z,49
2023-07-08T01:01:23.272Z,49
2023-07-08T01:01:54.439Z,49
2023-07-08T01:02:26.517Z,48
2023-07-08T01:02:55.493Z,50
2023-07-08T01:03:27.213Z,48
2023-07-08T01:03:58.094Z,48
2023-07-08T01:04:29.135Z,48
2023-07-08T01:04:59.981Z,48
2023-07-08T01:05:31.127Z,48
2023-07-08T01:06:01.487Z,48
2023-07-08T01:06:34.186Z,49
2023-07-08T01:07:04.537Z,49
2023-07-08T01:07:35.106Z,48
2023-07-08T01:08:05.376Z,48
2023-07-08T01:08:37.502Z,48
2023-07-08T01:09:07.571Z,49
2023-07-08T01:09:39.104Z,49
2023-07-08T01:10:10.215Z,49
2023-07-08T01:10:41.054Z,50
2023-07-08T01:11:12.056Z,50
2023-07-08T01:11:42.380Z,50
2023-07-08T01:12:15.082Z,50
2023-07-08T01:12:44.931Z,50
2023-07-08T01:13:16.749Z,50
2023-07-08T01:13:46.456Z,50
2023-07-08T01:14:18.213Z,50
2023-07-08T01:14:48.485Z,49
2023-07-08T01:15:20.949Z,50
2023-07-08T01:15:50.568Z,50
2023-07-08T01:16:22.235Z,50
2023-07-08T01:16:52.442Z,50
2023-07-08T01:17:25.069Z,50
2023-07-08T01:17:54.579Z,50
2023-07-08T01:18:26.268Z,49
2023-07-08T01:18:56.411Z,49
2023-07-08T01:19:28.120Z,49
2023-07-08T01:20:00.115Z,50
2023-07-08T01:20:43.346Z,50
2023-07-08T01:21:00.598Z,50
2023-07-08T01:21:32.087Z,49
2023-07-08T01:22:02.433Z,50
2023-07-08T01:22:35.590Z,50
2023-07-08T01:23:05.702Z,51
2023-07-08T01:23:36.331Z,52
2023-07-08T01:24:07.517Z,53
2023-07-08T01:24:38.122Z,54
2023-07-08T01:25:09.169Z,54
2023-07-08T01:25:40.273Z,55
2023-07-08T01:26:10.406Z,53
2023-07-08T01:26:42.688Z,55
2023-07-08T01:27:12.375Z,52
2023-07-08T01:27:45.117Z,54
2023-07-08T01:28:14.470Z,54
2023-07-08T01:28:46.102Z,54
2023-07-08T01:29:16.387Z,54
2023-07-08T01:29:48.093Z,53
2023-07-08T01:30:19.766Z,55
2023-07-08T01:30:50.194Z,54
2023-07-08T01:31:20.468Z,53
2023-07-08T01:31:52.146Z,54
2023-07-08T01:32:22.435Z,55
2023-07-08T01:32:55.105Z,55
2023-07-08T01:33:24.657Z,54
2023-07-08T01:33:56.084Z,52
2023-07-08T01:34:26.399Z,55
2023-07-08T01:34:58.506Z,54
2023-07-08T01:35:28.413Z,54
2023-07-08T01:36:00.448Z,52
2023-07-08T01:36:30.371Z,52
2023-07-08T01:37:02.103Z,54
2023-07-08T01:37:33.121Z,53
2023-07-08T01:38:06.090Z,52
2023-07-08T01:38:34.580Z,54
2023-07-08T01:39:05.555Z,54
2023-07-08T01:39:37.465Z,55
2023-07-08T01:40:09.419Z,55
2023-07-08T01:40:42.663Z,51
2023-07-08T01:41:09.474Z,52
2023-07-08T01:41:41.182Z,52
2023-07-08T01:42:11.424Z,53
2023-07-08T01:42:43.101Z,54
2023-07-08T01:43:14.410Z,54
2023-07-08T01:43:45.413Z,55
2023-07-08T01:44:16.179Z,56
2023-07-08T01:44:47.102Z,56
2023-07-08T01:45:18.304Z,57
2023-07-08T01:45:49.467Z,59
2023-07-08T01:46:19.434Z,59
2023-07-08T01:46:51.658Z,59
2023-07-08T01:47:21.404Z,59
2023-07-08T01:47:53.188Z,57
2023-07-08T01:48:24.384Z,58
2023-07-08T01:48:55.035Z,59
2023-07-08T01:49:25.381Z,59
2023-07-08T01:49:57.609Z,59
2023-07-08T01:50:27.384Z,60
2023-07-08T01:50:59.877Z,61
2023-07-08T01:51:29.388Z,62
2023-07-08T01:52:01.868Z,63
2023-07-08T01:52:31.370Z,62
2023-07-08T01:53:03.127Z,57
2023-07-08T01:53:35.057Z,61
2023-07-08T01:54:06.343Z,63
2023-07-08T01:54:35.593Z,62
2023-07-08T01:55:08.335Z,63
2023-07-08T01:55:37.527Z,64
2023-07-08T01:56:09.217Z,62
2023-07-08T01:56:39.416Z,64
2023-07-08T01:57:11.128Z,65
2023-07-08T01:57:42.122Z,64
2023-07-08T01:58:13.497Z,64
2023-07-08T01:58:44.399Z,65
2023-07-08T01:59:15.064Z,65
2023-07-08T01:59:45.420Z,64
2023-07-08T02:00:20.843Z,65
2023-07-08T02:01:16.559Z,65
2023-07-08T02:01:20.098Z,65
2023-07-08T02:01:50.234Z,65
2023-07-08T02:02:21.191Z,66
2023-07-08T02:02:51.571Z,66
2023-07-08T02:03:23.127Z,67
2023-07-08T02:03:54.635Z,67
2023-07-08T02:04:25.555Z,67
2023-07-08T02:04:56.357Z,67
2023-07-08T02:05:27.195Z,66
2023-07-08T02:05:57.698Z,67
2023-07-08T02:06:29.281Z,67
2023-07-08T02:06:59.477Z,67
2023-07-08T02:07:31.060Z,66
2023-07-08T02:08:01.525Z,67
2023-07-08T02:08:33.114Z,65
2023-07-08T02:09:04.363Z,65
2023-07-08T02:09:35.057Z,64
2023-07-08T02:10:06.712Z,64
2023-07-08T02:10:36.387Z,64
2023-07-08T02:11:08.809Z,64
2023-07-08T02:11:38.528Z,64
2023-07-08T02:12:10.054Z,65
2023-07-08T02:12:40.351Z,65
2023-07-08T02:13:12.302Z,65
2023-07-08T02:13:42.834Z,65
2023-07-08T02:14:15.042Z,65
2023-07-08T02:14:44.722Z,65
2023-07-08T02:15:17.041Z,65
2023-07-08T02:15:46.483Z,65
2023-07-08T02:16:18.252Z,66
2023-07-08T02:16:48.417Z,66
2023-07-08T02:17:20.078Z,66
2023-07-08T02:17:51.022Z,65
2023-07-08T02:18:22.029Z,65
2023-07-08T02:18:52.350Z,65
2023-07-08T02:19:25.048Z,66
2023-07-08T02:19:54.485Z,66
2023-07-08T02:20:27.743Z,67
2023-07-08T02:20:56.348Z,67
2023-07-08T02:21:28.070Z,67
2023-07-08T02:21:58.403Z,67
2023-07-08T02:22:30.082Z,67
2023-07-08T02:23:00.383Z,68
2023-07-08T02:23:32.040Z,68
2023-07-08T02:24:02.443Z,68
2023-07-08T02:24:35.081Z,69
2023-07-08T02:25:07.038Z,69
2023-07-08T02:25:36.126Z,69
2023-07-08T02:26:06.371Z,69
2023-07-08T02:26:38.153Z,70
2023-07-08T02:27:08.523Z,70
2023-07-08T02:27:40.034Z,70
2023-07-08T02:28:10.334Z,71
2023-07-08T02:28:42.051Z,71
2023-07-08T02:29:12.322Z,71
2023-07-08T02:29:45.751Z,71
2023-07-08T02:30:15.574Z,72
2023-07-08T02:30:46.269Z,72
2023-07-08T02:31:17.159Z,72
2023-07-08T02:31:48.205Z,72
2023-07-08T02:32:18.425Z,73
2023-07-08T02:32:50.179Z,73
2023-07-08T02:33:20.375Z,73
2023-07-08T02:33:52.854Z,73
2023-07-08T02:34:22.475Z,73
2023-07-08T02:34:55.845Z,73
2023-07-08T02:35:24.633Z,73
2023-07-08T02:35:56.045Z,73
2023-07-08T02:36:26.331Z,73
2023-07-08T02:36:58.071Z,73
2023-07-08T02:37:28.390Z,73
2023-07-08T02:38:00.312Z,73
2023-07-08T02:38:30.363Z,73
2023-07-08T02:39:02.316Z,73
2023-07-08T02:39:32.365Z,73
2023-07-08T02:40:06.048Z,73
2023-07-08T02:40:37.758Z,73
2023-07-08T02:41:06.052Z,73
2023-07-08T02:41:36.354Z,73
2023-07-08T02:42:08.094Z,73
2023-07-08T02:42:38.347Z,73
2023-07-08T02:43:10.018Z,73
2023-07-08T02:43:40.321Z,73
2023-07-08T02:44:12.043Z,74
2023-07-08T02:44:42.671Z,74
2023-07-08T02:45:15.995Z,74
2023-07-08T02:45:45.066Z,74
2023-07-08T02:46:16.074Z,74
2023-07-08T02:46:46.308Z,74
2023-07-08T02:47:18.608Z,74
2023-07-08T02:47:48.358Z,74
2023-07-08T02:48:20.051Z,74
2023-07-08T02:48:50.355Z,74
2023-07-08T02:49:22.063Z,74
2023-07-08T02:49:52.365Z,74
2023-07-08T02:50:25.515Z,75
2023-07-08T02:50:54.331Z,75
2023-07-08T02:51:26.062Z,74
2023-07-08T02:51:56.344Z,74
2023-07-08T02:52:28.112Z,74
2023-07-08T02:52:58.311Z,74
2023-07-08T02:53:30.009Z,74
2023-07-08T02:54:00.754Z,74
2023-07-08T02:54:32.061Z,74
2023-07-08T02:55:02.892Z,74
2023-07-08T02:55:35.310Z,74
2023-07-08T02:56:05.618Z,74
2023-07-08T02:56:35.370Z,74
2023-07-08T02:57:07.273Z,74
2023-07-08T02:57:37.444Z,74
2023-07-08T02:58:09.326Z,74
2023-07-08T02:58:39.445Z,74
2023-07-08T02:59:12.178Z,73
2023-07-08T02:59:41.374Z,73
2023-07-08T03:00:19.604Z,73
2023-07-08T03:00:46.356Z,74
2023-07-08T03:01:15.230Z,73
2023-07-08T03:01:45.437Z,74
2023-07-08T03:02:17.129Z,73
2023-07-08T03:02:47.464Z,73
2023-07-08T03:03:19.219Z,73
2023-07-08T03:03:49.460Z,72
2023-07-08T03:04:21.292Z,73
2023-07-08T03:04:51.712Z,74
2023-07-08T03:05:23.613Z,73
2023-07-08T03:05:54.553Z,72
2023-07-08T03:06:25.690Z,72
2023-07-08T03:06:55.524Z,72
2023-07-08T03:07:27.646Z,72
2023-07-08T03:07:57.544Z,73
2023-07-08T03:08:29.172Z,73
2023-07-08T03:09:00.005Z,73
2023-07-08T03:09:31.403Z,73
2023-07-08T03:10:02.453Z,73
2023-07-08T03:10:33.806Z,72
2023-07-08T03:11:04.716Z,73
2023-07-08T03:11:35.371Z,73
2023-07-08T03:12:05.599Z,73
2023-07-08T03:12:37.968Z,73
2023-07-08T03:13:07.885Z,73
2023-07-08T03:13:39.587Z,73
2023-07-08T03:14:09.768Z,73
2023-07-08T03:14:41.246Z,73
2023-07-08T03:15:12.588Z,73
2023-07-08T03:15:43.258Z,72
2023-07-08T03:16:14.556Z,72
2023-07-08T03:16:45.722Z,72
2023-07-08T03:17:15.527Z,72
2023-07-08T03:17:47.229Z,72
2023-07-08T03:18:17.874Z,72
2023-07-08T03:18:49.305Z,72
2023-07-08T03:19:19.491Z,73
2023-07-08T03:19:51.181Z,73
2023-07-08T03:20:22.045Z,73
2023-07-08T03:20:53.652Z,73
2023-07-08T03:21:24.547Z,73
2023-07-08T03:21:55.180Z,73
2023-07-08T03:22:25.488Z,74
2023-07-08T03:22:57.174Z,74
2023-07-08T03:23:27.521Z,75
2023-07-08T03:23:59.185Z,74
2023-07-08T03:24:29.955Z,74
2023-07-08T03:25:02.510Z,74
2023-07-08T03:25:31.566Z,74
2023-07-08T03:26:03.195Z,74
2023-07-08T03:26:34.499Z,74
2023-07-08T03:27:06.506Z,74
2023-07-08T03:27:35.882Z,74
2023-07-08T03:28:07.499Z,74
2023-07-08T03:28:37.716Z,74
2023-07-08T03:29:09.237Z,74
2023-07-08T03:29:39.671Z,74
2023-07-08T03:30:12.015Z,74
2023-07-08T03:30:41.800Z,74
2023-07-08T03:31:13.194Z,74
2023-07-08T03:31:44.505Z,75
2023-07-08T03:32:15.285Z,74
2023-07-08T03:32:45.489Z,74
2023-07-08T03:33:17.152Z,73
2023-07-08T03:33:47.505Z,74
2023-07-08T03:34:19.840Z,73
2023-07-08T03:34:49.501Z,74
2023-07-08T03:35:21.693Z,73
2023-07-08T03:35:51.565Z,73
2023-07-08T03:36:23.209Z,72
2023-07-08T03:36:54.520Z,73
2023-07-08T03:37:25.462Z,72
2023-07-08T03:37:55.512Z,71
2023-07-08T03:38:27.395Z,70
2023-07-08T03:38:57.501Z,71
2023-07-08T03:39:29.310Z,70
2023-07-08T03:39:59.966Z,69
2023-07-08T03:40:38.451Z,69
2023-07-08T03:41:01.855Z,69
2023-07-08T03:41:33.208Z,70
2023-07-08T03:42:04.516Z,69
2023-07-08T03:42:35.148Z,70
2023-07-08T03:43:05.482Z,71
2023-07-08T03:43:37.544Z,71
2023-07-08T03:44:07.738Z,71
2023-07-08T03:44:39.209Z,71
2023-07-08T03:45:11.237Z,71
2023-07-08T03:45:41.229Z,71
2023-07-08T03:46:11.566Z,71
2023-07-08T03:46:43.217Z,71
2023-07-08T03:47:14.541Z,71
2023-07-08T03:47:45.961Z,71
2023-07-08T03:48:15.506Z,71
2023-07-08T03:48:47.222Z,71
2023-07-08T03:49:17.679Z,71
2023-07-08T03:49:49.229Z,70
2023-07-08T03:50:19.948Z,71
2023-07-08T03:50:51.180Z,71
2023-07-08T03:51:21.841Z,71
2023-07-08T03:51:53.437Z,71
2023-07-08T03:52:24.476Z,71
2023-07-08T03:52:55.445Z,71
2023-07-08T03:53:25.488Z,71
2023-07-08T03:53:57.203Z,71
2023-07-08T03:54:27.555Z,71
2023-07-08T03:54:59.677Z,71
2023-07-08T03:55:29.479Z,71
2023-07-08T03:56:01.351Z,71
2023-07-08T03:56:31.515Z,71
2023-07-08T03:57:03.180Z,71
2023-07-08T03:57:34.481Z,72
2023-07-08T03:58:06.504Z,71
2023-07-08T03:58:35.959Z,71
2023-07-08T03:59:07.334Z,71
2023-07-08T03:59:37.785Z,72
2023-07-08T04:00:10.970Z,72
2023-07-08T04:00:43.616Z,72
2023-07-08T04:01:12.145Z,71
2023-07-08T04:01:41.543Z,71
2023-07-08T04:02:13.379Z,71
2023-07-08T04:02:44.702Z,71
2023-07-08T04:03:15.248Z,71
2023-07-08T04:03:45.626Z,71
2023-07-08T04:04:17.272Z,71
2023-07-08T04:04:47.523Z,71
2023-07-08T04:05:20.083Z,71
2023-07-08T04:05:49.491Z,72
2023-07-08T04:06:21.347Z,72
2023-07-08T04:06:51.707Z,71
2023-07-08T04:07:23.209Z,70
2023-07-08T04:07:55.048Z,70
2023-07-08T04:08:25.452Z,70
2023-07-08T04:08:55.510Z,70
2023-07-08T04:09:27.227Z,69
2023-07-08T04:09:57.936Z,69
2023-07-08T04:10:28.508Z,69
2023-07-08T04:10:59.735Z,69
2023-07-08T04:11:31.233Z,70
2023-07-08T04:12:01.974Z,70
2023-07-08T04:12:33.218Z,70
2023-07-08T04:13:04.516Z,70
2023-07-08T04:13:35.199Z,71
2023-07-08T04:14:05.548Z,71
2023-07-08T04:14:38.737Z,71
2023-07-08T04:15:09.400Z,71
2023-07-08T04:15:39.259Z,71
2023-07-08T04:16:10.033Z,71
2023-07-08T04:16:41.279Z,71
2023-07-08T04:17:11.454Z,72
2023-07-08T04:17:43.558Z,72
2023-07-08T04:18:14.454Z,72
2023-07-08T04:18:45.598Z,72
2023-07-08T04:19:15.523Z,71
2023-07-08T04:19:47.155Z,71
2023-07-08T04:20:17.967Z,71
2023-07-08T04:21:51.263Z,72
2023-07-08T04:22:21.962Z,72
2023-07-08T04:22:53.205Z,72
2023-07-08T04:23:24.533Z,72
2023-07-08T04:23:55.209Z,72
2023-07-08T04:24:25.520Z,72
2023-07-08T04:24:57.815Z,72
2023-07-08T04:25:29.286Z,72
2023-07-08T04:25:59.477Z,72
2023-07-08T04:26:29.481Z,72
2023-07-08T04:27:01.868Z,72
2023-07-08T04:27:31.477Z,72
2023-07-08T04:28:03.185Z,72
2023-07-08T04:28:34.520Z,73
2023-07-08T04:29:06.536Z,73
2023-07-08T04:29:35.590Z,73
2023-07-08T04:30:08.522Z,72
2023-07-08T04:30:37.785Z,72
2023-07-08T04:31:09.293Z,73
2023-07-08T04:31:39.503Z,74
2023-07-08T04:32:11.579Z,73
2023-07-08T04:32:43.665Z,72
2023-07-08T04:33:13.186Z,72
2023-07-08T04:33:44.491Z,73
2023-07-08T04:34:15.213Z,73
2023-07-08T04:34:45.514Z,73
2023-07-08T04:35:17.690Z,73
2023-07-08T04:35:47.531Z,73
2023-07-08T04:36:20.191Z,73
2023-07-08T04:36:49.806Z,73
2023-07-08T04:37:21.232Z,73
2023-07-08T04:37:51.497Z,72
2023-07-08T04:38:23.212Z,72
2023-07-08T04:38:54.604Z,72
2023-07-08T04:39:25.477Z,71
2023-07-08T04:39:56.071Z,71
2023-07-08T04:40:29.671Z,71
2023-07-08T04:40:58.254Z,71
2023-07-08T04:41:29.223Z,71
2023-07-08T04:41:59.552Z,71
2023-07-08T04:42:31.134Z,71
2023-07-08T04:43:01.728Z,71
2023-07-08T04:43:33.331Z,71
2023-07-08T04:44:04.570Z,71
2023-07-08T04:44:35.225Z,71
2023-07-08T04:45:07.075Z,71
2023-07-08T04:45:37.823Z,71
2023-07-08T04:46:07.812Z,71
2023-07-08T04:46:39.306Z,71
2023-07-08T04:47:09.506Z,71
2023-07-08T04:47:42.226Z,71
2023-07-08T04:48:11.427Z,71
2023-07-08T04:48:43.169Z,72
2023-07-08T04:49:14.513Z,72
2023-07-08T04:49:45.497Z,72
2023-07-08T04:50:16.275Z,72
2023-07-08T04:50:47.206Z,71
2023-07-08T04:51:17.509Z,71
2023-07-08T04:51:49.295Z,71
2023-07-08T04:52:20.066Z,71
2023-07-08T04:52:51.259Z,71
2023-07-08T04:53:21.476Z,71
2023-07-08T04:53:53.199Z,71
2023-07-08T04:54:24.716Z,71
2023-07-08T04:54:56.953Z,71
2023-07-08T04:55:25.521Z,71
2023-07-08T04:55:57.150Z,71
2023-07-08T04:56:27.632Z,71
2023-07-08T04:56:59.184Z,71
2023-07-08T04:57:29.482Z,71
2023-07-08T04:58:01.312Z,71
2023-07-08T04:58:31.459Z,72
2023-07-08T04:59:03.647Z,72
2023-07-08T04:59:34.529Z,71
2023-07-08T05:00:08.613Z,71
2023-07-08T05:00:39.000Z,71
2023-07-08T05:01:07.348Z,71
2023-07-08T05:01:38.095Z,70
2023-07-08T05:02:09.728Z,70
2023-07-08T05:02:39.687Z,70
2023-07-08T05:03:11.347Z,69
2023-07-08T05:03:41.737Z,69
2023-07-08T05:04:13.489Z,69
2023-07-08T05:04:44.721Z,69
2023-07-08T05:05:15.808Z,69
2023-07-08T05:05:46.328Z,68
2023-07-08T05:06:17.496Z,68
2023-07-08T05:06:47.698Z,68
2023-07-08T05:07:20.560Z,68
2023-07-08T05:07:49.751Z,67
2023-07-08T05:08:21.329Z,67
2023-07-08T05:08:51.635Z,66
2023-07-08T05:09:23.648Z,66
2023-07-08T05:09:55.153Z,67
2023-07-08T05:10:25.321Z,67
2023-07-08T05:10:55.778Z,67
2023-07-08T05:11:27.361Z,68
2023-07-08T05:11:57.745Z,67
2023-07-08T05:12:30.019Z,68
2023-07-08T05:13:00.049Z,70
2023-07-08T05:13:31.318Z,70
2023-07-08T05:14:01.905Z,69
2023-07-08T05:14:33.403Z,69
2023-07-08T05:15:08.162Z,69
2023-07-08T05:15:35.484Z,69
2023-07-08T05:16:05.786Z,70
2023-07-08T05:16:37.701Z,70
2023-07-08T05:17:08.077Z,71
2023-07-08T05:17:39.524Z,70
2023-07-08T05:18:09.896Z,70
2023-07-08T05:18:41.413Z,70
2023-07-08T05:19:12.212Z,70
2023-07-08T05:19:43.323Z,70
2023-07-08T05:20:15.112Z,70
2023-07-08T05:20:48.645Z,70
2023-07-08T05:21:15.656Z,70
2023-07-08T05:21:48.358Z,70
2023-07-08T05:22:17.604Z,70
2023-07-08T05:22:49.331Z,70
2023-07-08T05:23:19.871Z,70
2023-07-08T05:23:51.305Z,70
2023-07-08T05:24:21.639Z,70
2023-07-08T05:24:53.763Z,70
2023-07-08T05:25:24.941Z,69
2023-07-08T05:25:56.047Z,68
2023-07-08T05:26:25.618Z,68
2023-07-08T05:26:57.328Z,68
2023-07-08T05:27:27.411Z,68
2023-07-08T05:27:59.816Z,68
2023-07-08T05:28:29.489Z,69
2023-07-08T05:29:01.478Z,68
2023-07-08T05:29:31.504Z,68
2023-07-08T05:30:04.596Z,69
2023-07-08T05:30:34.987Z,69
2023-07-08T05:31:07.520Z,69
2023-07-08T05:31:46.589Z,68
2023-07-08T05:32:07.785Z,68
2023-07-08T05:32:38.526Z,68
2023-07-08T05:33:09.201Z,69
2023-07-08T05:33:40.544Z,69
2023-07-08T05:34:11.924Z,69
2023-07-08T05:34:41.449Z,70
2023-07-08T05:35:14.323Z,70
2023-07-08T05:35:44.511Z,70
2023-07-08T05:36:15.166Z,70
2023-07-08T05:36:45.797Z,70
2023-07-08T05:37:17.583Z,70
2023-07-08T05:37:47.483Z,70
2023-07-08T05:38:19.151Z,70
2023-07-08T05:38:49.476Z,70
2023-07-08T05:39:21.542Z,71
2023-07-08T05:39:52.296Z,71
2023-07-08T05:40:23.731Z,70
2023-07-08T05:40:54.674Z,70
2023-07-08T05:41:25.583Z,71
2023-07-08T05:41:55.913Z,71
2023-07-08T05:42:27.769Z,71
2023-07-08T05:42:57.623Z,70
2023-07-08T05:43:31.558Z,70
2023-07-08T05:43:59.648Z,70
2023-07-08T05:44:30.647Z,70
2023-07-08T05:45:03.368Z,70
2023-07-08T05:45:32.681Z,70
2023-07-08T05:46:12.322Z,69
2023-07-08T05:46:34.715Z,68
2023-07-08T05:47:06.353Z,68
2023-07-08T05:47:36.697Z,68
2023-07-08T05:48:08.236Z,69
2023-07-08T05:48:38.502Z,69
2023-07-08T05:49:10.362Z,68
2023-07-08T05:49:40.681Z,69
2023-07-08T05:50:12.875Z,68
2023-07-08T05:50:42.651Z,68
2023-07-08T05:51:15.303Z,68
2023-07-08T05:51:44.887Z,68
2023-07-08T05:52:16.350Z,68
2023-07-08T05:52:47.106Z,68
2023-07-08T05:53:18.516Z,67
2023-07-08T05:53:48.895Z,67
2023-07-08T05:54:20.284Z,67
2023-07-08T05:54:51.093Z,67
2023-07-08T05:55:22.308Z,66
2023-07-08T05:55:52.610Z,66
2023-07-08T05:56:26.198Z,66
2023-07-08T05:56:54.952Z,66
2023-07-08T05:57:25.679Z,66
2023-07-08T05:57:57.322Z,66
2023-07-08T05:58:27.729Z,66
2023-07-08T05:59:01.451Z,65
2023-07-08T05:59:30.085Z,66
2023-07-08T06:00:02.905Z,66
2023-07-08T06:00:38.974Z,65
2023-07-08T06:01:03.132Z,65
2023-07-08T06:01:35.485Z,64
2023-07-08T06:02:06.773Z,65
2023-07-08T06:02:36.299Z,65
2023-07-08T06:03:06.587Z,65
2023-07-08T06:03:38.465Z,64
2023-07-08T06:04:08.808Z,64
2023-07-08T06:04:40.305Z,64
2023-07-08T06:05:11.130Z,64
2023-07-08T06:05:42.326Z,63
2023-07-08T06:06:13.135Z,63
2023-07-08T06:06:45.434Z,63
2023-07-08T06:07:14.656Z,62
2023-07-08T06:07:47.418Z,61
2023-07-08T06:08:16.616Z,61
2023-07-08T06:08:48.432Z,61
2023-07-08T06:09:18.645Z,61
2023-07-08T06:09:50.856Z,58
2023-07-08T06:10:20.988Z,59
2023-07-08T06:10:51.659Z,59
2023-07-08T06:11:23.358Z,61
2023-07-08T06:11:54.688Z,61
2023-07-08T06:12:25.693Z,61
2023-07-08T06:12:56.364Z,61
2023-07-08T06:13:27.315Z,61
2023-07-08T06:13:57.708Z,62
2023-07-08T06:14:29.355Z,62
2023-07-08T06:15:00.873Z,63
2023-07-08T06:15:31.412Z,63
2023-07-08T06:16:01.669Z,64
2023-07-08T06:16:41.096Z,64
2023-07-08T06:17:04.612Z,65
2023-07-08T06:17:35.443Z,64
2023-07-08T06:18:05.703Z,64
2023-07-08T06:18:37.669Z,62
2023-07-08T06:19:08.083Z,62
2023-07-08T06:19:39.816Z,62
2023-07-08T06:20:10.202Z,62
2023-07-08T06:20:41.354Z,62
2023-07-08T06:21:11.617Z,62
2023-07-08T06:21:43.312Z,63
2023-07-08T06:22:44.378Z,60
2023-07-08T06:22:47.549Z,61
2023-07-08T06:23:15.581Z,59
2023-07-08T06:23:47.360Z,57
2023-07-08T06:24:17.691Z,56
2023-07-08T06:24:49.972Z,54
2023-07-08T06:25:19.740Z,55
2023-07-08T06:25:51.768Z,55
2023-07-08T06:26:21.921Z,56
2023-07-08T06:27:24.596Z,56
2023-07-08T06:27:55.331Z,55
2023-07-08T06:28:25.659Z,53
2023-07-08T06:28:57.349Z,54
2023-07-08T06:29:27.719Z,55
2023-07-08T06:30:00.198Z,56
2023-07-08T06:30:30.109Z,56
2023-07-08T06:31:01.797Z,56
2023-07-08T06:31:31.667Z,56
2023-07-08T06:32:03.368Z,57
2023-07-08T06:32:34.694Z,59
2023-07-08T06:33:06.936Z,58
2023-07-08T06:33:36.052Z,58
2023-07-08T06:34:07.646Z,57
2023-07-08T06:34:37.895Z,57
2023-07-08T06:35:09.932Z,57
2023-07-08T06:35:39.677Z,57
2023-07-08T06:36:11.860Z,56
2023-07-08T06:36:41.626Z,57
2023-07-08T06:37:13.386Z,57
2023-07-08T06:37:44.700Z,57
2023-07-08T06:38:17.245Z,57
2023-07-08T06:38:45.673Z,58
2023-07-08T06:39:17.412Z,58
2023-07-08T06:39:48.525Z,58
2023-07-08T06:40:19.564Z,60
2023-07-08T06:40:49.617Z,59
2023-07-08T06:41:21.920Z,59
2023-07-08T06:41:51.719Z,60
2023-07-08T06:42:23.349Z,59
2023-07-08T06:42:54.627Z,59
2023-07-08T06:43:25.613Z,59
2023-07-08T06:43:56.086Z,59
2023-07-08T06:44:28.173Z,60
2023-07-08T06:44:58.454Z,59
2023-07-08T06:45:29.504Z,58
2023-07-08T06:45:59.726Z,59
2023-07-08T06:46:31.870Z,59
2023-07-08T06:47:01.763Z,59
2023-07-08T06:47:34.529Z,58
2023-07-08T06:48:04.630Z,58
2023-07-08T06:48:35.361Z,58
2023-07-08T06:49:05.628Z,57
2023-07-08T06:49:38.311Z,57
2023-07-08T06:50:08.676Z,57
2023-07-08T06:50:39.468Z,56
2023-07-08T06:51:09.642Z,55
2023-07-08T06:51:41.441Z,55
2023-07-08T06:52:11.626Z,55
2023-07-08T06:52:43.350Z,57
2023-07-08T06:53:15.118Z,55
2023-07-08T06:53:45.692Z,55
2023-07-08T06:54:16.095Z,54
2023-07-08T06:54:47.882Z,55
2023-07-08T06:55:17.922Z,55
2023-07-08T06:55:49.457Z,55
2023-07-08T06:56:19.563Z,55
2023-07-08T06:56:51.373Z,55
2023-07-08T06:57:22.109Z,56
2023-07-08T06:57:54.420Z,56
2023-07-08T06:58:24.644Z,54
2023-07-08T06:58:55.430Z,54
2023-07-08T06:59:25.638Z,54
2023-07-08T06:59:58.631Z,54
2023-07-08T07:00:27.704Z,54
2023-07-08T07:01:01.060Z,53
2023-07-08T07:01:29.635Z,53
2023-07-08T07:02:01.546Z,53
2023-07-08T07:02:31.614Z,55
2023-07-08T07:03:03.541Z,54
2023-07-08T07:03:35.296Z,54
2023-07-08T07:04:06.721Z,54
2023-07-08T07:04:35.965Z,54
2023-07-08T07:05:08.218Z,55
2023-07-08T07:05:37.757Z,55
2023-07-08T07:06:09.288Z,55
2023-07-08T07:06:39.597Z,56
2023-07-08T07:07:11.444Z,56
2023-07-08T07:07:41.622Z,57
2023-07-08T07:08:13.333Z,57
2023-07-08T07:08:44.651Z,57
2023-07-08T07:09:15.497Z,57
2023-07-08T07:09:45.674Z,57
2023-07-08T07:10:24.486Z,57
2023-07-08T07:10:48.056Z,58
2023-07-08T07:11:19.395Z,57
2023-07-08T07:11:49.808Z,57
2023-07-08T07:12:21.359Z,57
2023-07-08T07:12:51.586Z,57
2023-07-08T07:13:23.853Z,57
2023-07-08T07:13:54.659Z,57
2023-07-08T07:14:56.507Z,57
2023-07-08T07:15:28.541Z,57
2023-07-08T07:15:57.883Z,56
2023-07-08T07:16:30.421Z,57
2023-07-08T07:17:08.117Z,56
2023-07-08T07:17:32.221Z,56
2023-07-08T07:18:01.681Z,56
2023-07-08T07:18:34.283Z,56
2023-07-08T07:19:04.595Z,56
2023-07-08T07:19:35.549Z,57
2023-07-08T07:20:07.338Z,56
2023-07-08T07:20:40.428Z,56
2023-07-08T07:21:08.081Z,56
2023-07-08T07:21:39.315Z,55
2023-07-08T07:22:09.616Z,55
2023-07-08T07:22:41.486Z,54
2023-07-08T07:23:11.637Z,55
2023-07-08T07:23:43.366Z,55
2023-07-08T07:24:14.688Z,55